createdAt,value
2019-03-29T00:02:58.371Z,23.83
2019-03-29T00:08:09.551Z,24.97
2019-03-29T00:13:17.326Z,25.87
2019-03-29T00:18:25.434Z,27.33
2019-03-29T00:23:33.222Z,25.27
2019-03-29T00:28:40.980Z,26.20
2019-03-29T00:33:49.405Z,22.50
2019-03-29T00:38:59.079Z,20.03
2019-03-29T00:44:06.870Z,24.53
2019-03-29T00:49:14.972Z,22.00
2019-03-29T00:54:23.790Z,28.20
2019-03-29T00:59:31.544Z,32.07
2019-03-29T01:04:40.755Z,27.50
2019-03-29T01:09:48.844Z,26.83
2019-03-29T01:14:57.443Z,25.83
2019-03-29T01:20:08.222Z,31.20
2019-03-29T01:25:15.838Z,25.10
2019-03-29T01:30:23.533Z,30.33
2019-03-29T01:35:32.060Z,35.07
2019-03-29T01:40:40.149Z,28.60
2019-03-29T01:45:48.319Z,28.47
2019-03-29T01:50:58.680Z,25.50
2019-03-29T01:56:09.489Z,26.63
2019-03-29T02:01:17.224Z,25.43
2019-03-29T02:06:25.790Z,22.27
2019-03-29T02:11:33.790Z,25.00
2019-03-29T02:16:41.531Z,22.87
2019-03-29T02:21:49.455Z,29.20
2019-03-29T02:26:57.468Z,27.60
2019-03-29T02:32:07.086Z,26.97
2019-03-29T02:37:15.259Z,27.27
2019-03-29T02:42:23.341Z,25.23
2019-03-29T02:47:31.009Z,32.70
2019-03-29T02:52:39.225Z,31.03
2019-03-29T02:57:46.925Z,30.13
2019-03-29T03:02:56.229Z,30.57
2019-03-29T03:08:07.802Z,38.50
2019-03-29T03:13:16.057Z,33.37
2019-03-29T03:18:23.759Z,31.30
2019-03-29T03:23:32.653Z,34.70
2019-03-29T03:28:40.618Z,36.03
2019-03-29T03:33:48.389Z,31.70
2019-03-29T03:38:56.525Z,33.13
2019-03-29T03:44:07.414Z,33.30
2019-03-29T03:49:15.185Z,28.67
2019-03-29T03:54:23.552Z,35.13
2019-03-29T03:59:32.686Z,31.03
2019-03-29T04:04:40.837Z,34.60
2019-03-29T04:09:50.748Z,28.23
2019-03-29T04:14:59.767Z,29.83
2019-03-29T04:20:10.516Z,31.43
2019-03-29T04:25:18.500Z,32.37
2019-03-29T04:30:26.210Z,27.07
2019-03-29T04:35:33.999Z,37.50
2019-03-29T04:40:41.919Z,31.97
2019-03-29T04:45:50.053Z,34.33
2019-03-29T04:50:57.884Z,35.97
2019-03-29T04:56:08.785Z,33.63
2019-03-29T05:01:17.423Z,32.77
2019-03-29T05:06:25.472Z,31.50
2019-03-29T05:11:33.967Z,33.23
2019-03-29T05:16:42.432Z,32.83
2019-03-29T05:21:50.319Z,29.33
2019-03-29T05:26:58.653Z,28.93
2019-03-29T05:32:10.519Z,27.67
2019-03-29T05:37:18.351Z,32.20
2019-03-29T05:42:26.477Z,38.83
2019-03-29T05:47:34.707Z,36.30
2019-03-29T05:52:42.417Z,36.07
2019-03-29T05:57:50.963Z,36.10
2019-03-29T06:02:58.615Z,38.37
2019-03-29T06:08:09.679Z,37.97
2019-03-29T06:13:18.209Z,38.23
2019-03-29T06:18:26.232Z,44.60
2019-03-29T06:23:34.837Z,37.80
2019-03-29T06:28:43.482Z,41.77
2019-03-29T06:33:51.691Z,35.40
2019-03-29T06:39:01.186Z,36.37
2019-03-29T06:44:11.245Z,44.80
2019-03-29T06:49:19.338Z,35.37
2019-03-29T06:54:27.047Z,31.37
2019-03-29T06:59:35.190Z,32.70
2019-03-29T07:04:42.919Z,32.27
2019-03-29T07:09:51.235Z,34.20
2019-03-29T07:15:00.941Z,28.93
2019-03-29T07:20:12.158Z,26.87
2019-03-29T07:25:19.958Z,25.87
2019-03-29T07:30:28.127Z,23.87
2019-03-29T07:47:07.062Z,26.40
2019-03-29T07:52:15.324Z,27.27
2019-03-29T07:57:24.092Z,23.57
2019-03-29T08:02:35.134Z,26.00
2019-03-29T08:07:43.876Z,24.60
2019-03-29T08:12:51.718Z,21.77
2019-03-29T08:18:01.697Z,19.43
2019-03-29T08:23:14.338Z,18.60
2019-03-29T08:28:22.103Z,21.40
2019-03-29T08:33:30.145Z,19.80
2019-03-29T08:38:37.871Z,11.83
2019-03-29T08:43:46.601Z,8.53
2019-03-29T08:48:54.935Z,13.10
2019-03-29T08:54:07.526Z,14.13
2019-03-29T08:59:17.613Z,19.70
2019-03-29T09:04:26.433Z,14.73
2019-03-29T09:09:37.613Z,16.00
2019-03-29T09:14:45.422Z,16.10
2019-03-29T09:19:54.081Z,19.10
2019-03-29T09:25:02.594Z,16.60
2019-03-29T09:30:10.766Z,19.90
2019-03-29T09:35:18.957Z,15.90
2019-03-29T09:40:26.787Z,20.17
2019-03-29T09:45:34.884Z,19.43
2019-03-29T09:50:46.710Z,16.00
2019-03-29T09:55:53.617Z,14.30
2019-03-29T10:01:02.744Z,12.90
2019-03-29T10:06:10.750Z,18.57
2019-03-29T10:11:21.943Z,22.23
2019-03-29T10:16:27.944Z,16.70
2019-03-29T10:21:37.310Z,13.93
2019-03-29T10:26:45.915Z,20.33
2019-03-29T10:31:53.647Z,19.80
2019-03-29T11:10:39.013Z,6.10
2019-03-29T11:15:46.887Z,7.20
2019-03-29T11:20:55.380Z,6.60
2019-03-29T11:26:04.924Z,6.67
2019-03-29T11:31:12.400Z,6.53
